sensor_id;sensor_type;location;lat;lon;timestamp;temperature;humidity
3332;DHT22;1678;50.94845400;5.30809100;2022-10-16T00:01:08;13.40;99.90
3332;DHT22;1678;50.94845400;5.30809100;2022-10-16T00:03:37;13.40;99.90
3332;DHT22;1678;50.94845400;5.30809100;2022-10-16T00:06:06;13.40;99.90
3332;DHT22;1678;50.94845400;5.30809100;2022-10-16T00:08:34;13.40;99.90
3332;DHT22;1678;50.94845400;5.30809100;2022-10-16T00:11:04;13.30;99.90
3332;DHT22;1678;50.94845400;5.30809100;2022-10-16T00:13:35;13.30;99.90
3332;DHT22;1678;50.94845400;5.30809100;2022-10-16T00:16:04;13.20;99.90
3332;DHT22;1678;50.94845400;5.30809100;2022-10-16T00:18:32;13.20;99.90
3332;DHT22;1678;50.94845400;5.30809100;2022-10-16T00:21:05;13.20;99.90
3332;DHT22;1678;50.94845400;5.30809100;2022-10-16T00:23:34;13.20;99.90
3332;DHT22;1678;50.94845400;5.30809100;2022-10-16T00:26:05;13.20;99.90
3332;DHT22;1678;50.94845400;5.30809100;2022-10-16T00:28:36;13.20;99.90
3332;DHT22;1678;50.94845400;5.30809100;2022-10-16T00:31:05;13.20;99.90
3332;DHT22;1678;50.94845400;5.30809100;2022-10-16T00:33:34;13.10;99.90
3332;DHT22;1678;50.94845400;5.30809100;2022-10-16T00:36:04;13.10;99.90
3332;DHT22;1678;50.94845400;5.30809100;2022-10-16T00:38:33;13.10;99.90
3332;DHT22;1678;50.94845400;5.30809100;2022-10-16T00:41:01;13.10;99.90
3332;DHT22;1678;50.94845400;5.30809100;2022-10-16T00:43:39;13.00;99.90
3332;DHT22;1678;50.94845400;5.30809100;2022-10-16T00:46:13;13.10;99.90
3332;DHT22;1678;50.94845400;5.30809100;2022-10-16T00:48:46;13.00;99.90
3332;DHT22;1678;50.94845400;5.30809100;2022-10-16T00:51:18;13.00;99.90
3332;DHT22;1678;50.94845400;5.30809100;2022-10-16T00:53:47;13.00;99.90
3332;DHT22;1678;50.94845400;5.30809100;2022-10-16T00:56:16;13.00;99.90
3332;DHT22;1678;50.94845400;5.30809100;2022-10-16T00:58:46;13.00;99.90
3332;DHT22;1678;50.94845400;5.30809100;2022-10-16T01:01:14;13.00;99.90
3332;DHT22;1678;50.94845400;5.30809100;2022-10-16T01:03:42;13.00;99.90
3332;DHT22;1678;50.94845400;5.30809100;2022-10-16T01:06:22;13.00;99.90
3332;DHT22;1678;50.94845400;5.30809100;2022-10-16T01:09:10;13.00;99.90
3332;DHT22;1678;50.94845400;5.30809100;2022-10-16T01:11:44;12.90;99.90
3332;DHT22;1678;50.94845400;5.30809100;2022-10-16T01:14:37;12.90;99.90
3332;DHT22;1678;50.94845400;5.30809100;2022-10-16T01:17:09;12.80;99.90
3332;DHT22;1678;50.94845400;5.30809100;2022-10-16T01:19:50;12.80;99.90
3332;DHT22;1678;50.94845400;5.30809100;2022-10-16T01:22:20;12.80;99.90
3332;DHT22;1678;50.94845400;5.30809100;2022-10-16T01:24:50;12.80;99.90
3332;DHT22;1678;50.94845400;5.30809100;2022-10-16T01:27:21;12.80;99.90
3332;DHT22;1678;50.94845400;5.30809100;2022-10-16T01:29:54;12.80;99.90
3332;DHT22;1678;50.94845400;5.30809100;2022-10-16T01:32:31;12.70;99.90
3332;DHT22;1678;50.94845400;5.30809100;2022-10-16T01:35:03;12.70;99.90
3332;DHT22;1678;50.94845400;5.30809100;2022-10-16T01:37:35;12.70;99.90
3332;DHT22;1678;50.94845400;5.30809100;2022-10-16T01:40:08;12.80;99.90
3332;DHT22;1678;50.94845400;5.30809100;2022-10-16T01:42:41;12.80;99.90
3332;DHT22;1678;50.94845400;5.30809100;2022-10-16T01:45:12;12.70;99.90
3332;DHT22;1678;50.94845400;5.30809100;2022-10-16T01:47:42;12.70;99.90
3332;DHT22;1678;50.94845400;5.30809100;2022-10-16T01:50:12;12.80;99.90
3332;DHT22;1678;50.94845400;5.30809100;2022-10-16T01:52:43;12.80;99.90
3332;DHT22;1678;50.94845400;5.30809100;2022-10-16T01:55:16;12.80;99.90
3332;DHT22;1678;50.94845400;5.30809100;2022-10-16T01:57:49;12.80;99.90
3332;DHT22;1678;50.94845400;5.30809100;2022-10-16T02:00:19;12.80;99.90
3332;DHT22;1678;50.94845400;5.30809100;2022-10-16T02:02:50;12.80;99.90
3332;DHT22;1678;50.94845400;5.30809100;2022-10-16T02:05:23;12.80;99.90
3332;DHT22;1678;50.94845400;5.30809100;2022-10-16T02:07:52;12.70;99.90
3332;DHT22;1678;50.94845400;5.30809100;2022-10-16T02:10:21;12.70;99.90
3332;DHT22;1678;50.94845400;5.30809100;2022-10-16T02:12:58;12.70;99.90
3332;DHT22;1678;50.94845400;5.30809100;2022-10-16T02:15:27;12.70;99.90
3332;DHT22;1678;50.94845400;5.30809100;2022-10-16T02:17:56;12.70;99.90
3332;DHT22;1678;50.94845400;5.30809100;2022-10-16T02:20:27;12.80;99.90
3332;DHT22;1678;50.94845400;5.30809100;2022-10-16T02:22:56;12.70;99.90
3332;DHT22;1678;50.94845400;5.30809100;2022-10-16T02:25:28;12.70;99.90
3332;DHT22;1678;50.94845400;5.30809100;2022-10-16T02:28:02;12.80;99.90
3332;DHT22;1678;50.94845400;5.30809100;2022-10-16T02:30:35;12.80;99.90
3332;DHT22;1678;50.94845400;5.30809100;2022-10-16T02:33:07;12.80;99.90
3332;DHT22;1678;50.94845400;5.30809100;2022-10-16T02:35:35;12.80;99.90
3332;DHT22;1678;50.94845400;5.30809100;2022-10-16T02:38:04;12.80;99.90
3332;DHT22;1678;50.94845400;5.30809100;2022-10-16T02:40:33;12.90;99.90
3332;DHT22;1678;50.94845400;5.30809100;2022-10-16T02:43:04;12.80;99.90
3332;DHT22;1678;50.94845400;5.30809100;2022-10-16T02:45:32;12.90;99.90
3332;DHT22;1678;50.94845400;5.30809100;2022-10-16T02:48:00;12.80;99.90
3332;DHT22;1678;50.94845400;5.30809100;2022-10-16T02:50:28;12.80;99.90
3332;DHT22;1678;50.94845400;5.30809100;2022-10-16T02:52:56;12.90;99.90
3332;DHT22;1678;50.94845400;5.30809100;2022-10-16T02:55:25;12.90;99.90
3332;DHT22;1678;50.94845400;5.30809100;2022-10-16T02:57:54;12.90;99.90
3332;DHT22;1678;50.94845400;5.30809100;2022-10-16T03:00:23;12.90;99.90
3332;DHT22;1678;50.94845400;5.30809100;2022-10-16T03:02:51;12.90;99.90
3332;DHT22;1678;50.94845400;5.30809100;2022-10-16T03:05:19;12.90;99.90
3332;DHT22;1678;50.94845400;5.30809100;2022-10-16T03:07:52;12.90;99.90
3332;DHT22;1678;50.94845400;5.30809100;2022-10-16T03:10:20;12.80;99.90
3332;DHT22;1678;50.94845400;5.30809100;2022-10-16T03:12:49;12.80;99.90
3332;DHT22;1678;50.94845400;5.30809100;2022-10-16T03:15:17;12.80;99.90
3332;DHT22;1678;50.94845400;5.30809100;2022-10-16T03:17:47;12.80;99.90
3332;DHT22;1678;50.94845400;5.30809100;2022-10-16T03:20:15;12.80;99.90
3332;DHT22;1678;50.94845400;5.30809100;2022-10-16T03:22:43;12.80;99.90
3332;DHT22;1678;50.94845400;5.30809100;2022-10-16T03:25:11;12.80;99.90
3332;DHT22;1678;50.94845400;5.30809100;2022-10-16T03:27:39;12.90;99.90
3332;DHT22;1678;50.94845400;5.30809100;2022-10-16T03:30:08;12.90;99.90
3332;DHT22;1678;50.94845400;5.30809100;2022-10-16T03:32:36;12.80;99.90
3332;DHT22;1678;50.94845400;5.30809100;2022-10-16T03:35:07;12.80;99.90
3332;DHT22;1678;50.94845400;5.30809100;2022-10-16T03:37:35;12.80;99.90
3332;DHT22;1678;50.94845400;5.30809100;2022-10-16T03:40:03;12.80;99.90
3332;DHT22;1678;50.94845400;5.30809100;2022-10-16T03:42:31;12.90;99.90
3332;DHT22;1678;50.94845400;5.30809100;2022-10-16T03:44:59;12.90;99.90
3332;DHT22;1678;50.94845400;5.30809100;2022-10-16T03:47:28;12.80;99.90
3332;DHT22;1678;50.94845400;5.30809100;2022-10-16T03:49:56;12.80;99.90
3332;DHT22;1678;50.94845400;5.30809100;2022-10-16T03:52:25;12.80;99.90
3332;DHT22;1678;50.94845400;5.30809100;2022-10-16T03:54:54;12.90;99.90
3332;DHT22;1678;50.94845400;5.30809100;2022-10-16T03:57:22;12.80;99.90
3332;DHT22;1678;50.94845400;5.30809100;2022-10-16T03:59:51;12.90;99.90
3332;DHT22;1678;50.94845400;5.30809100;2022-10-16T04:02:18;12.90;99.90
3332;DHT22;1678;50.94845400;5.30809100;2022-10-16T04:04:46;12.90;99.90
3332;DHT22;1678;50.94845400;5.30809100;2022-10-16T04:07:14;12.90;99.90
3332;DHT22;1678;50.94845400;5.30809100;2022-10-16T04:09:44;12.80;99.90
3332;DHT22;1678;50.94845400;5.30809100;2022-10-16T04:12:12;12.80;99.90
3332;DHT22;1678;50.94845400;5.30809100;2022-10-16T04:14:40;12.80;99.90
3332;DHT22;1678;50.94845400;5.30809100;2022-10-16T04:17:08;12.80;99.90
3332;DHT22;1678;50.94845400;5.30809100;2022-10-16T04:19:36;12.80;99.90
3332;DHT22;1678;50.94845400;5.30809100;2022-10-16T04:22:04;12.80;99.90
3332;DHT22;1678;50.94845400;5.30809100;2022-10-16T04:24:32;12.80;99.90
3332;DHT22;1678;50.94845400;5.30809100;2022-10-16T04:27:01;12.80;99.90
3332;DHT22;1678;50.94845400;5.30809100;2022-10-16T04:29:29;12.80;99.90
3332;DHT22;1678;50.94845400;5.30809100;2022-10-16T04:31:57;12.80;99.90
3332;DHT22;1678;50.94845400;5.30809100;2022-10-16T04:34:25;12.80;99.90
3332;DHT22;1678;50.94845400;5.30809100;2022-10-16T04:36:53;12.80;99.90
3332;DHT22;1678;50.94845400;5.30809100;2022-10-16T04:39:21;12.90;99.90
3332;DHT22;1678;50.94845400;5.30809100;2022-10-16T04:41:49;12.90;99.90
3332;DHT22;1678;50.94845400;5.30809100;2022-10-16T04:44:19;12.90;99.90
3332;DHT22;1678;50.94845400;5.30809100;2022-10-16T04:46:49;12.90;99.90
3332;DHT22;1678;50.94845400;5.30809100;2022-10-16T04:49:17;12.90;99.90
3332;DHT22;1678;50.94845400;5.30809100;2022-10-16T04:51:45;12.90;99.90
3332;DHT22;1678;50.94845400;5.30809100;2022-10-16T04:54:14;13.00;99.90
3332;DHT22;1678;50.94845400;5.30809100;2022-10-16T04:56:42;12.90;99.90
3332;DHT22;1678;50.94845400;5.30809100;2022-10-16T04:59:14;12.90;99.90
3332;DHT22;1678;50.94845400;5.30809100;2022-10-16T05:01:43;12.90;99.90
3332;DHT22;1678;50.94845400;5.30809100;2022-10-16T05:04:12;12.90;99.90
3332;DHT22;1678;50.94845400;5.30809100;2022-10-16T05:06:42;12.90;99.90
3332;DHT22;1678;50.94845400;5.30809100;2022-10-16T05:09:10;12.90;99.90
3332;DHT22;1678;50.94845400;5.30809100;2022-10-16T05:11:38;13.00;99.90
3332;DHT22;1678;50.94845400;5.30809100;2022-10-16T05:14:06;12.90;99.90
3332;DHT22;1678;50.94845400;5.30809100;2022-10-16T05:16:34;12.90;99.90
3332;DHT22;1678;50.94845400;5.30809100;2022-10-16T05:19:04;12.90;99.90
3332;DHT22;1678;50.94845400;5.30809100;2022-10-16T05:21:52;12.80;99.90
3332;DHT22;1678;50.94845400;5.30809100;2022-10-16T05:24:20;12.80;99.90
3332;DHT22;1678;50.94845400;5.30809100;2022-10-16T05:26:48;12.80;99.90
3332;DHT22;1678;50.94845400;5.30809100;2022-10-16T05:29:16;12.80;99.90
3332;DHT22;1678;50.94845400;5.30809100;2022-10-16T05:31:44;12.90;99.90
3332;DHT22;1678;50.94845400;5.30809100;2022-10-16T05:34:13;12.80;99.90
3332;DHT22;1678;50.94845400;5.30809100;2022-10-16T05:36:41;12.90;99.90
3332;DHT22;1678;50.94845400;5.30809100;2022-10-16T05:39:11;12.90;99.90
3332;DHT22;1678;50.94845400;5.30809100;2022-10-16T05:41:39;12.80;99.90
3332;DHT22;1678;50.94845400;5.30809100;2022-10-16T05:44:07;12.90;99.90
3332;DHT22;1678;50.94845400;5.30809100;2022-10-16T05:46:35;12.80;99.90
3332;DHT22;1678;50.94845400;5.30809100;2022-10-16T05:49:03;12.80;99.90
3332;DHT22;1678;50.94845400;5.30809100;2022-10-16T05:51:33;12.80;99.90
3332;DHT22;1678;50.94845400;5.30809100;2022-10-16T05:54:01;12.80;99.90
3332;DHT22;1678;50.94845400;5.30809100;2022-10-16T05:56:29;12.70;99.90
3332;DHT22;1678;50.94845400;5.30809100;2022-10-16T05:58:57;12.80;99.90
3332;DHT22;1678;50.94845400;5.30809100;2022-10-16T06:01:25;12.80;99.90
3332;DHT22;1678;50.94845400;5.30809100;2022-10-16T06:03:53;12.70;99.90
3332;DHT22;1678;50.94845400;5.30809100;2022-10-16T06:06:22;12.80;99.90
3332;DHT22;1678;50.94845400;5.30809100;2022-10-16T06:08:53;12.70;99.90
3332;DHT22;1678;50.94845400;5.30809100;2022-10-16T06:11:23;12.70;99.90
3332;DHT22;1678;50.94845400;5.30809100;2022-10-16T06:13:53;12.70;99.90
3332;DHT22;1678;50.94845400;5.30809100;2022-10-16T06:16:21;12.60;99.90
3332;DHT22;1678;50.94845400;5.30809100;2022-10-16T06:18:50;12.60;99.90
3332;DHT22;1678;50.94845400;5.30809100;2022-10-16T06:21:20;12.60;99.90
3332;DHT22;1678;50.94845400;5.30809100;2022-10-16T06:23:48;12.70;99.90
3332;DHT22;1678;50.94845400;5.30809100;2022-10-16T06:26:20;12.60;99.90
3332;DHT22;1678;50.94845400;5.30809100;2022-10-16T06:28:49;12.70;99.90
3332;DHT22;1678;50.94845400;5.30809100;2022-10-16T06:31:17;12.60;99.90
3332;DHT22;1678;50.94845400;5.30809100;2022-10-16T06:33:45;12.70;99.90
3332;DHT22;1678;50.94845400;5.30809100;2022-10-16T06:36:15;12.60;99.90
3332;DHT22;1678;50.94845400;5.30809100;2022-10-16T06:38:44;12.70;99.90
3332;DHT22;1678;50.94845400;5.30809100;2022-10-16T06:41:14;12.70;99.90
3332;DHT22;1678;50.94845400;5.30809100;2022-10-16T06:43:44;12.70;99.90
3332;DHT22;1678;50.94845400;5.30809100;2022-10-16T06:46:14;12.60;99.90
3332;DHT22;1678;50.94845400;5.30809100;2022-10-16T06:48:42;12.60;99.90
3332;DHT22;1678;50.94845400;5.30809100;2022-10-16T06:51:11;12.70;99.90
3332;DHT22;1678;50.94845400;5.30809100;2022-10-16T06:53:41;12.60;99.90
3332;DHT22;1678;50.94845400;5.30809100;2022-10-16T06:56:29;12.70;99.90
3332;DHT22;1678;50.94845400;5.30809100;2022-10-16T06:58:59;12.70;99.90
3332;DHT22;1678;50.94845400;5.30809100;2022-10-16T07:01:28;12.70;99.90
3332;DHT22;1678;50.94845400;5.30809100;2022-10-16T07:03:56;12.70;99.90
3332;DHT22;1678;50.94845400;5.30809100;2022-10-16T07:06:26;12.80;99.90
3332;DHT22;1678;50.94845400;5.30809100;2022-10-16T07:08:54;12.90;99.90
3332;DHT22;1678;50.94845400;5.30809100;2022-10-16T07:11:23;13.00;99.90
3332;DHT22;1678;50.94845400;5.30809100;2022-10-16T07:13:51;13.10;99.90
3332;DHT22;1678;50.94845400;5.30809100;2022-10-16T07:16:24;13.10;99.90
3332;DHT22;1678;50.94845400;5.30809100;2022-10-16T07:18:54;13.20;99.90
3332;DHT22;1678;50.94845400;5.30809100;2022-10-16T07:21:27;13.20;99.90
3332;DHT22;1678;50.94845400;5.30809100;2022-10-16T07:23:56;13.30;99.90
3332;DHT22;1678;50.94845400;5.30809100;2022-10-16T07:26:26;13.40;99.90
3332;DHT22;1678;50.94845400;5.30809100;2022-10-16T07:28:54;13.40;99.90
3332;DHT22;1678;50.94845400;5.30809100;2022-10-16T07:31:25;13.40;99.90
3332;DHT22;1678;50.94845400;5.30809100;2022-10-16T07:33:53;13.50;99.90
3332;DHT22;1678;50.94845400;5.30809100;2022-10-16T07:36:22;13.70;99.90
3332;DHT22;1678;50.94845400;5.30809100;2022-10-16T07:38:50;13.70;99.90
3332;DHT22;1678;50.94845400;5.30809100;2022-10-16T07:41:22;13.70;99.90
3332;DHT22;1678;50.94845400;5.30809100;2022-10-16T07:43:52;13.70;99.90
3332;DHT22;1678;50.94845400;5.30809100;2022-10-16T07:46:22;13.80;99.90
3332;DHT22;1678;50.94845400;5.30809100;2022-10-16T07:48:51;13.80;99.90
3332;DHT22;1678;50.94845400;5.30809100;2022-10-16T07:51:21;13.90;99.90
3332;DHT22;1678;50.94845400;5.30809100;2022-10-16T07:53:50;13.90;99.90
3332;DHT22;1678;50.94845400;5.30809100;2022-10-16T07:56:19;14.00;99.90
3332;DHT22;1678;50.94845400;5.30809100;2022-10-16T07:58:48;14.10;99.90
3332;DHT22;1678;50.94845400;5.30809100;2022-10-16T08:01:17;14.10;99.90
3332;DHT22;1678;50.94845400;5.30809100;2022-10-16T08:03:47;14.30;99.90
3332;DHT22;1678;50.94845400;5.30809100;2022-10-16T08:06:18;14.40;99.90
3332;DHT22;1678;50.94845400;5.30809100;2022-10-16T08:08:53;14.50;99.90
3332;DHT22;1678;50.94845400;5.30809100;2022-10-16T08:11:22;14.50;99.90
3332;DHT22;1678;50.94845400;5.30809100;2022-10-16T08:13:50;14.50;99.90
3332;DHT22;1678;50.94845400;5.30809100;2022-10-16T08:16:18;14.50;99.90
3332;DHT22;1678;50.94845400;5.30809100;2022-10-16T08:18:46;14.40;99.90
3332;DHT22;1678;50.94845400;5.30809100;2022-10-16T08:21:17;14.40;99.90
3332;DHT22;1678;50.94845400;5.30809100;2022-10-16T08:23:47;14.50;99.90
3332;DHT22;1678;50.94845400;5.30809100;2022-10-16T08:26:22;14.50;99.90
3332;DHT22;1678;50.94845400;5.30809100;2022-10-16T08:28:50;14.60;99.90
3332;DHT22;1678;50.94845400;5.30809100;2022-10-16T08:31:19;14.60;99.90
3332;DHT22;1678;50.94845400;5.30809100;2022-10-16T08:33:48;14.60;99.90
3332;DHT22;1678;50.94845400;5.30809100;2022-10-16T08:36:17;14.70;99.90
3332;DHT22;1678;50.94845400;5.30809100;2022-10-16T08:38:47;14.70;99.90
3332;DHT22;1678;50.94845400;5.30809100;2022-10-16T08:41:27;14.80;99.90
3332;DHT22;1678;50.94845400;5.30809100;2022-10-16T08:44:14;14.90;99.90
3332;DHT22;1678;50.94845400;5.30809100;2022-10-16T08:46:52;14.90;99.90
3332;DHT22;1678;50.94845400;5.30809100;2022-10-16T08:49:24;15.00;99.90
3332;DHT22;1678;50.94845400;5.30809100;2022-10-16T08:51:55;15.00;99.90
3332;DHT22;1678;50.94845400;5.30809100;2022-10-16T08:54:29;15.00;99.90
3332;DHT22;1678;50.94845400;5.30809100;2022-10-16T08:57:08;15.10;99.90
3332;DHT22;1678;50.94845400;5.30809100;2022-10-16T08:59:37;15.10;99.90
3332;DHT22;1678;50.94845400;5.30809100;2022-10-16T09:02:22;15.20;99.90
3332;DHT22;1678;50.94845400;5.30809100;2022-10-16T09:05:03;15.10;99.90
3332;DHT22;1678;50.94845400;5.30809100;2022-10-16T09:07:44;15.20;99.90
3332;DHT22;1678;50.94845400;5.30809100;2022-10-16T09:10:26;15.30;99.90
3332;DHT22;1678;50.94845400;5.30809100;2022-10-16T09:13:03;15.30;99.90
3332;DHT22;1678;50.94845400;5.30809100;2022-10-16T09:15:42;15.40;99.90
3332;DHT22;1678;50.94845400;5.30809100;2022-10-16T09:18:20;15.50;99.90
3332;DHT22;1678;50.94845400;5.30809100;2022-10-16T09:21:01;15.50;99.90
3332;DHT22;1678;50.94845400;5.30809100;2022-10-16T09:23:36;15.50;99.90
3332;DHT22;1678;50.94845400;5.30809100;2022-10-16T09:26:06;15.50;99.90
3332;DHT22;1678;50.94845400;5.30809100;2022-10-16T09:28:37;15.50;99.90
3332;DHT22;1678;50.94845400;5.30809100;2022-10-16T09:31:07;15.40;99.90
3332;DHT22;1678;50.94845400;5.30809100;2022-10-16T09:33:37;15.70;99.90
3332;DHT22;1678;50.94845400;5.30809100;2022-10-16T09:36:08;15.60;99.90
3332;DHT22;1678;50.94845400;5.30809100;2022-10-16T09:38:37;15.80;99.90
3332;DHT22;1678;50.94845400;5.30809100;2022-10-16T09:41:15;16.00;99.90
3332;DHT22;1678;50.94845400;5.30809100;2022-10-16T09:43:49;16.20;99.90
3332;DHT22;1678;50.94845400;5.30809100;2022-10-16T09:46:25;16.50;99.90
3332;DHT22;1678;50.94845400;5.30809100;2022-10-16T09:48:55;16.60;99.90
3332;DHT22;1678;50.94845400;5.30809100;2022-10-16T09:51:26;16.50;99.90
3332;DHT22;1678;50.94845400;5.30809100;2022-10-16T09:53:58;16.60;99.90
3332;DHT22;1678;50.94845400;5.30809100;2022-10-16T09:56:28;16.70;99.90
3332;DHT22;1678;50.94845400;5.30809100;2022-10-16T09:58:58;16.70;99.90
3332;DHT22;1678;50.94845400;5.30809100;2022-10-16T10:01:30;16.90;99.90
3332;DHT22;1678;50.94845400;5.30809100;2022-10-16T10:03:59;16.80;99.90
3332;DHT22;1678;50.94845400;5.30809100;2022-10-16T10:06:31;16.80;99.90
3332;DHT22;1678;50.94845400;5.30809100;2022-10-16T10:09:06;16.90;99.90
3332;DHT22;1678;50.94845400;5.30809100;2022-10-16T10:11:49;16.90;99.90
3332;DHT22;1678;50.94845400;5.30809100;2022-10-16T10:14:23;17.00;99.90
3332;DHT22;1678;50.94845400;5.30809100;2022-10-16T10:17:01;16.90;99.90
3332;DHT22;1678;50.94845400;5.30809100;2022-10-16T10:19:29;17.00;99.90
3332;DHT22;1678;50.94845400;5.30809100;2022-10-16T10:21:58;17.20;99.90
3332;DHT22;1678;50.94845400;5.30809100;2022-10-16T10:24:28;17.40;99.90
3332;DHT22;1678;50.94845400;5.30809100;2022-10-16T10:27:00;17.50;99.90
3332;DHT22;1678;50.94845400;5.30809100;2022-10-16T10:29:44;17.30;99.90
3332;DHT22;1678;50.94845400;5.30809100;2022-10-16T10:32:21;17.10;99.90
3332;DHT22;1678;50.94845400;5.30809100;2022-10-16T10:35:01;17.00;99.90
3332;DHT22;1678;50.94845400;5.30809100;2022-10-16T10:37:41;17.00;99.90
3332;DHT22;1678;50.94845400;5.30809100;2022-10-16T10:40:18;17.20;99.90
3332;DHT22;1678;50.94845400;5.30809100;2022-10-16T10:42:54;17.60;99.90
3332;DHT22;1678;50.94845400;5.30809100;2022-10-16T10:45:27;17.90;99.90
3332;DHT22;1678;50.94845400;5.30809100;2022-10-16T10:48:18;17.70;99.90
3332;DHT22;1678;50.94845400;5.30809100;2022-10-16T10:50:50;17.50;99.90
3332;DHT22;1678;50.94845400;5.30809100;2022-10-16T10:53:29;17.40;99.90
3332;DHT22;1678;50.94845400;5.30809100;2022-10-16T10:56:07;17.40;99.90
3332;DHT22;1678;50.94845400;5.30809100;2022-10-16T10:58:58;17.60;99.90
3332;DHT22;1678;50.94845400;5.30809100;2022-10-16T11:01:34;17.80;99.90
3332;DHT22;1678;50.94845400;5.30809100;2022-10-16T11:04:22;18.00;99.90
3332;DHT22;1678;50.94845400;5.30809100;2022-10-16T11:06:57;18.10;99.90
3332;DHT22;1678;50.94845400;5.30809100;2022-10-16T11:09:30;17.90;99.90
3332;DHT22;1678;50.94845400;5.30809100;2022-10-16T11:12:05;17.40;99.90
3332;DHT22;1678;50.94845400;5.30809100;2022-10-16T11:14:38;17.30;99.90
3332;DHT22;1678;50.94845400;5.30809100;2022-10-16T11:17:12;17.90;99.90
3332;DHT22;1678;50.94845400;5.30809100;2022-10-16T11:19:45;18.40;99.90
3332;DHT22;1678;50.94845400;5.30809100;2022-10-16T11:22:19;18.40;99.90
3332;DHT22;1678;50.94845400;5.30809100;2022-10-16T11:24:51;18.50;95.60
3332;DHT22;1678;50.94845400;5.30809100;2022-10-16T11:27:37;18.70;93.10
3332;DHT22;1678;50.94845400;5.30809100;2022-10-16T11:30:14;18.60;89.40
3332;DHT22;1678;50.94845400;5.30809100;2022-10-16T11:32:52;18.60;91.00
3332;DHT22;1678;50.94845400;5.30809100;2022-10-16T11:35:25;18.70;91.00
3332;DHT22;1678;50.94845400;5.30809100;2022-10-16T11:37:57;19.10;94.50
3332;DHT22;1678;50.94845400;5.30809100;2022-10-16T11:40:30;19.20;89.60
3332;DHT22;1678;50.94845400;5.30809100;2022-10-16T11:43:06;19.20;89.40
3332;DHT22;1678;50.94845400;5.30809100;2022-10-16T11:45:41;18.90;86.90
3332;DHT22;1678;50.94845400;5.30809100;2022-10-16T11:48:18;18.80;90.00
3332;DHT22;1678;50.94845400;5.30809100;2022-10-16T11:50:51;18.80;88.20
3332;DHT22;1678;50.94845400;5.30809100;2022-10-16T11:53:27;18.90;88.90
3332;DHT22;1678;50.94845400;5.30809100;2022-10-16T11:55:59;19.00;86.30
3332;DHT22;1678;50.94845400;5.30809100;2022-10-16T11:58:31;19.10;86.10
3332;DHT22;1678;50.94845400;5.30809100;2022-10-16T12:01:10;19.00;85.00
3332;DHT22;1678;50.94845400;5.30809100;2022-10-16T12:03:46;18.80;87.40
3332;DHT22;1678;50.94845400;5.30809100;2022-10-16T12:06:28;18.80;88.60
3332;DHT22;1678;50.94845400;5.30809100;2022-10-16T12:08:58;18.80;86.50
3332;DHT22;1678;50.94845400;5.30809100;2022-10-16T12:11:36;19.00;88.50
3332;DHT22;1678;50.94845400;5.30809100;2022-10-16T12:14:22;19.20;88.80
3332;DHT22;1678;50.94845400;5.30809100;2022-10-16T12:17:26;19.20;86.60
3332;DHT22;1678;50.94845400;5.30809100;2022-10-16T12:19:59;19.40;86.20
3332;DHT22;1678;50.94845400;5.30809100;2022-10-16T12:22:29;19.40;87.40
3332;DHT22;1678;50.94845400;5.30809100;2022-10-16T12:24:57;19.20;81.70
3332;DHT22;1678;50.94845400;5.30809100;2022-10-16T12:27:29;19.20;81.20
3332;DHT22;1678;50.94845400;5.30809100;2022-10-16T12:30:00;19.30;82.40
3332;DHT22;1678;50.94845400;5.30809100;2022-10-16T12:32:33;19.60;84.10
3332;DHT22;1678;50.94845400;5.30809100;2022-10-16T12:35:20;19.90;83.00
3332;DHT22;1678;50.94845400;5.30809100;2022-10-16T12:37:48;20.30;81.60
3332;DHT22;1678;50.94845400;5.30809100;2022-10-16T12:40:26;19.70;86.60
3332;DHT22;1678;50.94845400;5.30809100;2022-10-16T12:42:55;19.40;87.10
3332;DHT22;1678;50.94845400;5.30809100;2022-10-16T12:45:30;19.30;91.40
3332;DHT22;1678;50.94845400;5.30809100;2022-10-16T12:47:59;19.00;94.10
3332;DHT22;1678;50.94845400;5.30809100;2022-10-16T12:50:31;19.00;91.10
3332;DHT22;1678;50.94845400;5.30809100;2022-10-16T12:53:01;19.40;89.10
3332;DHT22;1678;50.94845400;5.30809100;2022-10-16T12:55:35;19.70;88.10
3332;DHT22;1678;50.94845400;5.30809100;2022-10-16T12:58:23;19.70;74.30
3332;DHT22;1678;50.94845400;5.30809100;2022-10-16T13:00:57;19.80;73.40
3332;DHT22;1678;50.94845400;5.30809100;2022-10-16T13:03:48;19.90;75.40
3332;DHT22;1678;50.94845400;5.30809100;2022-10-16T13:06:28;19.80;77.70
3332;DHT22;1678;50.94845400;5.30809100;2022-10-16T13:09:08;19.80;75.90
3332;DHT22;1678;50.94845400;5.30809100;2022-10-16T13:11:52;19.90;77.80
3332;DHT22;1678;50.94845400;5.30809100;2022-10-16T13:17:30;19.80;80.00
3332;DHT22;1678;50.94845400;5.30809100;2022-10-16T13:20:05;20.00;80.60
3332;DHT22;1678;50.94845400;5.30809100;2022-10-16T13:22:45;20.00;79.40
3332;DHT22;1678;50.94845400;5.30809100;2022-10-16T13:25:27;19.90;78.60
3332;DHT22;1678;50.94845400;5.30809100;2022-10-16T13:27:59;19.80;82.10
3332;DHT22;1678;50.94845400;5.30809100;2022-10-16T13:30:30;19.60;81.20
3332;DHT22;1678;50.94845400;5.30809100;2022-10-16T13:33:04;18.80;88.80
3332;DHT22;1678;50.94845400;5.30809100;2022-10-16T13:35:34;18.20;91.10
3332;DHT22;1678;50.94845400;5.30809100;2022-10-16T13:38:13;18.20;95.80
3332;DHT22;1678;50.94845400;5.30809100;2022-10-16T13:40:50;18.50;95.90
3332;DHT22;1678;50.94845400;5.30809100;2022-10-16T13:43:20;18.90;94.70
3332;DHT22;1678;50.94845400;5.30809100;2022-10-16T13:45:54;19.10;92.70
3332;DHT22;1678;50.94845400;5.30809100;2022-10-16T13:48:24;19.50;93.20
3332;DHT22;1678;50.94845400;5.30809100;2022-10-16T13:50:59;19.60;93.90
3332;DHT22;1678;50.94845400;5.30809100;2022-10-16T13:53:29;19.60;86.00
3332;DHT22;1678;50.94845400;5.30809100;2022-10-16T13:55:57;19.80;87.70
3332;DHT22;1678;50.94845400;5.30809100;2022-10-16T13:58:26;19.70;86.10
3332;DHT22;1678;50.94845400;5.30809100;2022-10-16T14:00:56;19.80;89.00
3332;DHT22;1678;50.94845400;5.30809100;2022-10-16T14:03:28;19.90;87.40
3332;DHT22;1678;50.94845400;5.30809100;2022-10-16T14:06:00;20.00;86.30
3332;DHT22;1678;50.94845400;5.30809100;2022-10-16T14:08:30;20.20;86.60
3332;DHT22;1678;50.94845400;5.30809100;2022-10-16T14:10:59;20.50;83.10
3332;DHT22;1678;50.94845400;5.30809100;2022-10-16T14:13:36;20.70;76.00
3332;DHT22;1678;50.94845400;5.30809100;2022-10-16T14:16:07;20.70;75.10